sensor_id;sensor_type;location;lat;lon;timestamp;temperature;humidity
23271;DHT22;11804;51.118;17.058;2023-05-02T00:02:26;13.60;99.90
23271;DHT22;11804;51.118;17.058;2023-05-02T00:04:53;13.60;99.90
23271;DHT22;11804;51.118;17.058;2023-05-02T00:07:21;13.60;99.90
23271;DHT22;11804;51.118;17.058;2023-05-02T00:09:49;13.50;99.90
23271;DHT22;11804;51.118;17.058;2023-05-02T00:12:16;13.50;99.90
23271;DHT22;11804;51.118;17.058;2023-05-02T00:14:44;13.50;99.90
23271;DHT22;11804;51.118;17.058;2023-05-02T00:17:18;13.40;99.90
23271;DHT22;11804;51.118;17.058;2023-05-02T00:19:46;13.40;99.90
23271;DHT22;11804;51.118;17.058;2023-05-02T00:22:14;13.40;99.90
23271;DHT22;11804;51.118;17.058;2023-05-02T00:24:42;13.40;99.90
23271;DHT22;11804;51.118;17.058;2023-05-02T00:27:09;13.40;99.90
23271;DHT22;11804;51.118;17.058;2023-05-02T00:29:37;13.40;99.90
23271;DHT22;11804;51.118;17.058;2023-05-02T00:32:05;13.30;99.90
23271;DHT22;11804;51.118;17.058;2023-05-02T00:34:33;13.20;99.90
23271;DHT22;11804;51.118;17.058;2023-05-02T00:37:01;13.20;99.90
23271;DHT22;11804;51.118;17.058;2023-05-02T00:39:28;13.30;99.90
23271;DHT22;11804;51.118;17.058;2023-05-02T00:41:57;13.30;99.90
23271;DHT22;11804;51.118;17.058;2023-05-02T00:44:24;13.30;99.90
23271;DHT22;11804;51.118;17.058;2023-05-02T00:46:52;13.30;99.90
23271;DHT22;11804;51.118;17.058;2023-05-02T00:49:20;13.30;99.90
23271;DHT22;11804;51.118;17.058;2023-05-02T00:51:48;13.30;99.90
23271;DHT22;11804;51.118;17.058;2023-05-02T00:54:16;13.30;99.90
23271;DHT22;11804;51.118;17.058;2023-05-02T00:56:44;13.30;99.90
23271;DHT22;11804;51.118;17.058;2023-05-02T00:59:13;13.20;99.90
23271;DHT22;11804;51.118;17.058;2023-05-02T01:02:10;13.20;99.90
23271;DHT22;11804;51.118;17.058;2023-05-02T01:13:23;13.10;99.90
23271;DHT22;11804;51.118;17.058;2023-05-02T01:15:51;13.10;99.90
23271;DHT22;11804;51.118;17.058;2023-05-02T01:18:24;13.00;99.90
23271;DHT22;11804;51.118;17.058;2023-05-02T01:20:56;13.00;99.90
23271;DHT22;11804;51.118;17.058;2023-05-02T01:29:15;13.00;99.90
23271;DHT22;11804;51.118;17.058;2023-05-02T01:31:47;13.00;99.90
23271;DHT22;11804;51.118;17.058;2023-05-02T01:34:16;13.00;99.90
23271;DHT22;11804;51.118;17.058;2023-05-02T01:36:46;13.00;99.90
23271;DHT22;11804;51.118;17.058;2023-05-02T01:39:19;12.90;99.90
23271;DHT22;11804;51.118;17.058;2023-05-02T01:41:47;12.90;99.90
23271;DHT22;11804;51.118;17.058;2023-05-02T01:44:17;12.90;99.90
23271;DHT22;11804;51.118;17.058;2023-05-02T01:46:45;12.90;99.90
23271;DHT22;11804;51.118;17.058;2023-05-02T01:49:14;12.90;99.90
23271;DHT22;11804;51.118;17.058;2023-05-02T01:51:47;12.90;99.90
23271;DHT22;11804;51.118;17.058;2023-05-02T01:54:16;13.00;99.90
23271;DHT22;11804;51.118;17.058;2023-05-02T01:56:44;13.00;99.90
23271;DHT22;11804;51.118;17.058;2023-05-02T01:59:16;13.00;99.90
23271;DHT22;11804;51.118;17.058;2023-05-02T02:01:44;13.00;99.90
23271;DHT22;11804;51.118;17.058;2023-05-02T02:04:14;13.10;99.90
23271;DHT22;11804;51.118;17.058;2023-05-02T02:06:45;13.10;99.90
23271;DHT22;11804;51.118;17.058;2023-05-02T02:09:14;13.10;99.90
23271;DHT22;11804;51.118;17.058;2023-05-02T02:12:11;13.10;99.90
23271;DHT22;11804;51.118;17.058;2023-05-02T02:14:47;13.10;99.90
23271;DHT22;11804;51.118;17.058;2023-05-02T02:17:23;13.10;99.90
23271;DHT22;11804;51.118;17.058;2023-05-02T02:19:47;13.10;99.90
23271;DHT22;11804;51.118;17.058;2023-05-02T02:22:17;13.10;99.90
23271;DHT22;11804;51.118;17.058;2023-05-02T02:24:47;13.10;99.90
23271;DHT22;11804;51.118;17.058;2023-05-02T02:27:15;13.00;99.90
23271;DHT22;11804;51.118;17.058;2023-05-02T02:29:43;13.00;99.90
23271;DHT22;11804;51.118;17.058;2023-05-02T02:32:11;13.00;99.90
23271;DHT22;11804;51.118;17.058;2023-05-02T02:34:38;13.00;99.90
23271;DHT22;11804;51.118;17.058;2023-05-02T02:37:20;13.10;99.90
23271;DHT22;11804;51.118;17.058;2023-05-02T02:39:53;13.10;99.90
23271;DHT22;11804;51.118;17.058;2023-05-02T02:44:55;13.10;99.90
23271;DHT22;11804;51.118;17.058;2023-05-02T02:47:30;13.10;99.90
23271;DHT22;11804;51.118;17.058;2023-05-02T02:50:23;13.10;99.90
23271;DHT22;11804;51.118;17.058;2023-05-02T02:53:02;13.10;99.90
23271;DHT22;11804;51.118;17.058;2023-05-02T02:58:32;13.20;99.90
23271;DHT22;11804;51.118;17.058;2023-05-02T03:00:57;13.20;99.90
23271;DHT22;11804;51.118;17.058;2023-05-02T03:03:26;13.20;99.90
23271;DHT22;11804;51.118;17.058;2023-05-02T03:05:55;13.20;99.90
23271;DHT22;11804;51.118;17.058;2023-05-02T03:08:23;13.30;99.90
23271;DHT22;11804;51.118;17.058;2023-05-02T03:10:51;13.30;99.90
23271;DHT22;11804;51.118;17.058;2023-05-02T03:13:19;13.30;99.90
23271;DHT22;11804;51.118;17.058;2023-05-02T03:18:24;13.30;99.90
23271;DHT22;11804;51.118;17.058;2023-05-02T03:20:51;13.30;99.90
23271;DHT22;11804;51.118;17.058;2023-05-02T03:23:19;13.30;99.90
23271;DHT22;11804;51.118;17.058;2023-05-02T03:25:46;13.30;99.90
23271;DHT22;11804;51.118;17.058;2023-05-02T03:28:14;13.30;99.90
23271;DHT22;11804;51.118;17.058;2023-05-02T03:30:42;13.30;99.90
23271;DHT22;11804;51.118;17.058;2023-05-02T03:33:09;13.40;99.90
23271;DHT22;11804;51.118;17.058;2023-05-02T03:35:37;13.40;99.90
23271;DHT22;11804;51.118;17.058;2023-05-02T03:38:05;13.40;99.90
23271;DHT22;11804;51.118;17.058;2023-05-02T03:40:32;13.50;99.90
23271;DHT22;11804;51.118;17.058;2023-05-02T03:43:00;13.50;99.90
23271;DHT22;11804;51.118;17.058;2023-05-02T03:45:27;13.50;99.90
23271;DHT22;11804;51.118;17.058;2023-05-02T03:47:55;13.60;99.90
23271;DHT22;11804;51.118;17.058;2023-05-02T03:50:23;13.60;99.90
23271;DHT22;11804;51.118;17.058;2023-05-02T03:52:50;13.60;99.90
23271;DHT22;11804;51.118;17.058;2023-05-02T03:55:18;13.60;99.90
23271;DHT22;11804;51.118;17.058;2023-05-02T03:57:46;13.60;99.90
23271;DHT22;11804;51.118;17.058;2023-05-02T04:00:14;13.60;99.90
23271;DHT22;11804;51.118;17.058;2023-05-02T04:02:43;13.60;99.90
23271;DHT22;11804;51.118;17.058;2023-05-02T04:05:10;13.60;99.90
23271;DHT22;11804;51.118;17.058;2023-05-02T04:07:38;13.60;99.90
23271;DHT22;11804;51.118;17.058;2023-05-02T04:10:06;13.60;99.90
23271;DHT22;11804;51.118;17.058;2023-05-02T04:12:35;13.70;99.90
23271;DHT22;11804;51.118;17.058;2023-05-02T04:15:03;13.60;99.90
23271;DHT22;11804;51.118;17.058;2023-05-02T04:17:31;13.60;99.90
23271;DHT22;11804;51.118;17.058;2023-05-02T04:19:59;13.60;99.90
23271;DHT22;11804;51.118;17.058;2023-05-02T04:22:27;13.60;99.90
23271;DHT22;11804;51.118;17.058;2023-05-02T04:24:55;13.70;99.90
23271;DHT22;11804;51.118;17.058;2023-05-02T04:27:22;13.60;99.90
23271;DHT22;11804;51.118;17.058;2023-05-02T04:29:50;13.60;99.90
23271;DHT22;11804;51.118;17.058;2023-05-02T04:32:19;13.70;99.90
23271;DHT22;11804;51.118;17.058;2023-05-02T04:34:47;13.70;99.90
23271;DHT22;11804;51.118;17.058;2023-05-02T04:37:14;13.70;99.90
23271;DHT22;11804;51.118;17.058;2023-05-02T04:39:42;13.60;99.90
23271;DHT22;11804;51.118;17.058;2023-05-02T04:42:10;13.60;99.90
23271;DHT22;11804;51.118;17.058;2023-05-02T04:44:37;13.50;99.90
23271;DHT22;11804;51.118;17.058;2023-05-02T04:47:05;13.60;99.90
23271;DHT22;11804;51.118;17.058;2023-05-02T04:49:33;13.60;99.90
23271;DHT22;11804;51.118;17.058;2023-05-02T04:52:01;13.60;99.90
23271;DHT22;11804;51.118;17.058;2023-05-02T04:54:28;13.50;99.90
23271;DHT22;11804;51.118;17.058;2023-05-02T04:56:56;13.40;99.90
23271;DHT22;11804;51.118;17.058;2023-05-02T04:59:25;13.40;99.90
23271;DHT22;11804;51.118;17.058;2023-05-02T05:01:52;13.40;99.90
23271;DHT22;11804;51.118;17.058;2023-05-02T05:04:20;13.50;99.90
23271;DHT22;11804;51.118;17.058;2023-05-02T05:06:47;13.40;99.90
23271;DHT22;11804;51.118;17.058;2023-05-02T05:09:15;13.40;99.90
23271;DHT22;11804;51.118;17.058;2023-05-02T05:11:43;13.40;99.90
23271;DHT22;11804;51.118;17.058;2023-05-02T05:14:11;13.30;99.90
23271;DHT22;11804;51.118;17.058;2023-05-02T05:16:39;13.30;99.90
23271;DHT22;11804;51.118;17.058;2023-05-02T05:19:07;13.30;99.90
23271;DHT22;11804;51.118;17.058;2023-05-02T05:21:34;13.40;99.90
23271;DHT22;11804;51.118;17.058;2023-05-02T05:24:02;13.30;99.90
23271;DHT22;11804;51.118;17.058;2023-05-02T05:26:30;13.40;99.90
23271;DHT22;11804;51.118;17.058;2023-05-02T05:28:59;13.50;99.90
23271;DHT22;11804;51.118;17.058;2023-05-02T05:31:26;13.50;99.90
23271;DHT22;11804;51.118;17.058;2023-05-02T05:33:54;13.50;99.90
23271;DHT22;11804;51.118;17.058;2023-05-02T05:36:22;13.50;99.90
23271;DHT22;11804;51.118;17.058;2023-05-02T05:38:50;13.50;99.90
23271;DHT22;11804;51.118;17.058;2023-05-02T05:41:18;13.50;99.90
23271;DHT22;11804;51.118;17.058;2023-05-02T05:43:45;13.60;99.90
23271;DHT22;11804;51.118;17.058;2023-05-02T05:46:13;13.60;99.90
23271;DHT22;11804;51.118;17.058;2023-05-02T05:48:40;13.60;99.90
23271;DHT22;11804;51.118;17.058;2023-05-02T05:51:08;13.60;99.90
23271;DHT22;11804;51.118;17.058;2023-05-02T05:53:36;13.60;99.90
23271;DHT22;11804;51.118;17.058;2023-05-02T05:56:10;13.70;99.90
23271;DHT22;11804;51.118;17.058;2023-05-02T05:58:39;13.70;99.90
23271;DHT22;11804;51.118;17.058;2023-05-02T06:01:08;13.70;99.90
23271;DHT22;11804;51.118;17.058;2023-05-02T06:03:36;13.70;99.90
23271;DHT22;11804;51.118;17.058;2023-05-02T06:06:04;13.80;99.90
23271;DHT22;11804;51.118;17.058;2023-05-02T06:08:31;13.90;99.90
23271;DHT22;11804;51.118;17.058;2023-05-02T06:10:59;14.10;99.90
23271;DHT22;11804;51.118;17.058;2023-05-02T06:13:26;14.10;99.90
23271;DHT22;11804;51.118;17.058;2023-05-02T06:15:54;14.10;99.90
23271;DHT22;11804;51.118;17.058;2023-05-02T06:18:23;14.10;99.90
23271;DHT22;11804;51.118;17.058;2023-05-02T06:20:51;14.10;99.90
23271;DHT22;11804;51.118;17.058;2023-05-02T06:23:18;14.30;99.90
23271;DHT22;11804;51.118;17.058;2023-05-02T06:25:46;14.40;99.90
23271;DHT22;11804;51.118;17.058;2023-05-02T06:28:14;14.40;99.90
23271;DHT22;11804;51.118;17.058;2023-05-02T06:30:41;14.40;99.90
23271;DHT22;11804;51.118;17.058;2023-05-02T06:33:09;14.40;99.90
23271;DHT22;11804;51.118;17.058;2023-05-02T06:35:37;14.40;99.90
23271;DHT22;11804;51.118;17.058;2023-05-02T06:38:05;14.40;99.90
23271;DHT22;11804;51.118;17.058;2023-05-02T06:40:34;14.40;99.90
23271;DHT22;11804;51.118;17.058;2023-05-02T06:43:03;14.50;99.90
23271;DHT22;11804;51.118;17.058;2023-05-02T06:45:30;14.60;99.90
23271;DHT22;11804;51.118;17.058;2023-05-02T06:47:58;14.60;99.90
23271;DHT22;11804;51.118;17.058;2023-05-02T06:50:26;14.60;99.90
23271;DHT22;11804;51.118;17.058;2023-05-02T06:52:54;14.70;99.90
23271;DHT22;11804;51.118;17.058;2023-05-02T06:55:22;14.80;99.90
23271;DHT22;11804;51.118;17.058;2023-05-02T06:57:50;14.80;99.90
23271;DHT22;11804;51.118;17.058;2023-05-02T07:00:19;15.00;99.90
23271;DHT22;11804;51.118;17.058;2023-05-02T07:02:48;15.20;99.90
23271;DHT22;11804;51.118;17.058;2023-05-02T07:05:16;15.30;99.90
23271;DHT22;11804;51.118;17.058;2023-05-02T07:07:44;15.40;99.90
23271;DHT22;11804;51.118;17.058;2023-05-02T07:10:11;15.40;99.90
23271;DHT22;11804;51.118;17.058;2023-05-02T07:12:39;15.40;99.90
23271;DHT22;11804;51.118;17.058;2023-05-02T07:15:07;15.50;99.90
23271;DHT22;11804;51.118;17.058;2023-05-02T07:17:34;15.70;99.90
23271;DHT22;11804;51.118;17.058;2023-05-02T07:20:04;15.90;99.90
23271;DHT22;11804;51.118;17.058;2023-05-02T07:22:32;16.40;99.90
23271;DHT22;11804;51.118;17.058;2023-05-02T07:25:01;16.70;99.90
23271;DHT22;11804;51.118;17.058;2023-05-02T07:27:29;17.20;99.90
23271;DHT22;11804;51.118;17.058;2023-05-02T07:29:57;17.60;99.90
23271;DHT22;11804;51.118;17.058;2023-05-02T07:32:25;17.80;98.40
23271;DHT22;11804;51.118;17.058;2023-05-02T07:34:53;18.00;98.70
23271;DHT22;11804;51.118;17.058;2023-05-02T07:37:22;18.00;98.10
23271;DHT22;11804;51.118;17.058;2023-05-02T07:39:49;18.10;95.60
23271;DHT22;11804;51.118;17.058;2023-05-02T07:42:17;18.10;93.60
23271;DHT22;11804;51.118;17.058;2023-05-02T07:44:46;18.10;93.10
23271;DHT22;11804;51.118;17.058;2023-05-02T07:47:14;18.10;94.30
23271;DHT22;11804;51.118;17.058;2023-05-02T07:49:41;18.50;94.80
23271;DHT22;11804;51.118;17.058;2023-05-02T07:52:09;18.60;90.50
23271;DHT22;11804;51.118;17.058;2023-05-02T07:54:36;18.80;88.80
23271;DHT22;11804;51.118;17.058;2023-05-02T07:57:04;18.70;87.00
23271;DHT22;11804;51.118;17.058;2023-05-02T07:59:33;18.40;88.20
23271;DHT22;11804;51.118;17.058;2023-05-02T08:02:01;18.10;89.30
23271;DHT22;11804;51.118;17.058;2023-05-02T08:04:28;18.20;90.00
23271;DHT22;11804;51.118;17.058;2023-05-02T08:06:56;18.50;88.20
23271;DHT22;11804;51.118;17.058;2023-05-02T08:09:24;18.60;87.60
23271;DHT22;11804;51.118;17.058;2023-05-02T08:11:51;18.70;86.20
23271;DHT22;11804;51.118;17.058;2023-05-02T08:14:19;19.30;87.20
23271;DHT22;11804;51.118;17.058;2023-05-02T08:16:46;19.60;82.60
23271;DHT22;11804;51.118;17.058;2023-05-02T08:19:14;19.50;78.30
23271;DHT22;11804;51.118;17.058;2023-05-02T08:21:42;19.70;74.70
23271;DHT22;11804;51.118;17.058;2023-05-02T08:24:10;19.50;75.70
23271;DHT22;11804;51.118;17.058;2023-05-02T08:26:37;19.10;74.50
23271;DHT22;11804;51.118;17.058;2023-05-02T08:29:05;18.70;75.90
23271;DHT22;11804;51.118;17.058;2023-05-02T08:31:33;18.40;77.30
23271;DHT22;11804;51.118;17.058;2023-05-02T08:34:00;18.20;77.50
23271;DHT22;11804;51.118;17.058;2023-05-02T08:36:28;18.20;79.50
23271;DHT22;11804;51.118;17.058;2023-05-02T08:38:55;18.30;80.40
23271;DHT22;11804;51.118;17.058;2023-05-02T08:41:23;18.20;77.80
23271;DHT22;11804;51.118;17.058;2023-05-02T08:43:52;18.10;78.80
23271;DHT22;11804;51.118;17.058;2023-05-02T08:46:22;18.10;79.10
23271;DHT22;11804;51.118;17.058;2023-05-02T08:48:50;18.30;79.10
23271;DHT22;11804;51.118;17.058;2023-05-02T08:51:20;18.60;77.00
23271;DHT22;11804;51.118;17.058;2023-05-02T08:53:50;18.40;76.60
23271;DHT22;11804;51.118;17.058;2023-05-02T08:56:20;18.40;76.20
23271;DHT22;11804;51.118;17.058;2023-05-02T08:58:47;18.40;72.80
23271;DHT22;11804;51.118;17.058;2023-05-02T09:01:17;18.30;73.20
23271;DHT22;11804;51.118;17.058;2023-05-02T09:03:47;18.20;73.20
23271;DHT22;11804;51.118;17.058;2023-05-02T09:06:17;17.90;73.50
23271;DHT22;11804;51.118;17.058;2023-05-02T09:08:49;17.70;75.20
23271;DHT22;11804;51.118;17.058;2023-05-02T09:11:19;17.50;77.70
23271;DHT22;11804;51.118;17.058;2023-05-02T09:13:49;17.50;78.60
23271;DHT22;11804;51.118;17.058;2023-05-02T09:16:22;17.70;80.30
23271;DHT22;11804;51.118;17.058;2023-05-02T09:18:53;17.90;79.80
23271;DHT22;11804;51.118;17.058;2023-05-02T09:21:22;17.80;78.00
23271;DHT22;11804;51.118;17.058;2023-05-02T09:23:56;17.70;79.30
23271;DHT22;11804;51.118;17.058;2023-05-02T09:26:31;17.80;76.90
23271;DHT22;11804;51.118;17.058;2023-05-02T09:28:59;17.90;78.50
23271;DHT22;11804;51.118;17.058;2023-05-02T09:31:33;18.10;78.90
23271;DHT22;11804;51.118;17.058;2023-05-02T09:34:07;18.20;77.40
23271;DHT22;11804;51.118;17.058;2023-05-02T09:36:41;18.60;77.70
23271;DHT22;11804;51.118;17.058;2023-05-02T09:39:16;18.80;75.20
23271;DHT22;11804;51.118;17.058;2023-05-02T09:41:40;18.90;75.40
23271;DHT22;11804;51.118;17.058;2023-05-02T09:44:12;18.90;75.80
23271;DHT22;11804;51.118;17.058;2023-05-02T09:46:46;18.90;75.10
23271;DHT22;11804;51.118;17.058;2023-05-02T09:49:12;19.00;74.40
23271;DHT22;11804;51.118;17.058;2023-05-02T09:51:47;18.90;75.40
23271;DHT22;11804;51.118;17.058;2023-05-02T09:54:34;18.80;75.40
23271;DHT22;11804;51.118;17.058;2023-05-02T09:57:03;18.80;75.90
23271;DHT22;11804;51.118;17.058;2023-05-02T09:59:33;18.90;75.10
23271;DHT22;11804;51.118;17.058;2023-05-02T10:02:02;18.90;72.10
23271;DHT22;11804;51.118;17.058;2023-05-02T10:04:40;18.90;73.40
23271;DHT22;11804;51.118;17.058;2023-05-02T10:07:02;19.10;70.50
23271;DHT22;11804;51.118;17.058;2023-05-02T10:09:34;19.30;69.40
23271;DHT22;11804;51.118;17.058;2023-05-02T10:12:03;19.20;67.50
23271;DHT22;11804;51.118;17.058;2023-05-02T10:14:38;19.20;68.80
23271;DHT22;11804;51.118;17.058;2023-05-02T10:19:56;19.30;65.20
23271;DHT22;11804;51.118;17.058;2023-05-02T10:22:24;19.50;64.30
23271;DHT22;11804;51.118;17.058;2023-05-02T10:24:53;19.40;65.00
23271;DHT22;11804;51.118;17.058;2023-05-02T10:27:21;19.60;65.30
23271;DHT22;11804;51.118;17.058;2023-05-02T10:29:50;19.70;64.00
23271;DHT22;11804;51.118;17.058;2023-05-02T10:32:18;19.80;64.00
23271;DHT22;11804;51.118;17.058;2023-05-02T10:34:48;20.00;62.20
23271;DHT22;11804;51.118;17.058;2023-05-02T10:37:16;20.10;61.70
23271;DHT22;11804;51.118;17.058;2023-05-02T10:39:49;20.00;61.10
23271;DHT22;11804;51.118;17.058;2023-05-02T10:42:20;20.10;59.70
23271;DHT22;11804;51.118;17.058;2023-05-02T10:44:48;20.10;60.40
23271;DHT22;11804;51.118;17.058;2023-05-02T10:47:21;20.30;58.20
23271;DHT22;11804;51.118;17.058;2023-05-02T10:49:54;20.10;57.40
23271;DHT22;11804;51.118;17.058;2023-05-02T10:52:36;20.30;56.70
23271;DHT22;11804;51.118;17.058;2023-05-02T10:55:14;20.10;55.00
23271;DHT22;11804;51.118;17.058;2023-05-02T11:00:30;20.10;55.00
23271;DHT22;11804;51.118;17.058;2023-05-02T11:02:59;20.10;54.90
23271;DHT22;11804;51.118;17.058;2023-05-02T11:05:27;20.60;53.40
23271;DHT22;11804;51.118;17.058;2023-05-02T11:10:45;20.10;53.90
23271;DHT22;11804;51.118;17.058;2023-05-02T11:13:12;19.80;51.50
23271;DHT22;11804;51.118;17.058;2023-05-02T11:18:12;19.90;52.70
23271;DHT22;11804;51.118;17.058;2023-05-02T11:20:41;19.90;52.60
23271;DHT22;11804;51.118;17.058;2023-05-02T11:23:20;19.90;53.50
23271;DHT22;11804;51.118;17.058;2023-05-02T11:25:54;20.10;53.60
23271;DHT22;11804;51.118;17.058;2023-05-02T11:31:06;20.50;52.80
23271;DHT22;11804;51.118;17.058;2023-05-02T11:33:35;20.60;52.40
23271;DHT22;11804;51.118;17.058;2023-05-02T11:36:03;20.40;52.40
23271;DHT22;11804;51.118;17.058;2023-05-02T11:38:37;20.40;51.20
23271;DHT22;11804;51.118;17.058;2023-05-02T11:41:05;20.50;51.10
23271;DHT22;11804;51.118;17.058;2023-05-02T11:43:32;20.60;50.70
23271;DHT22;11804;51.118;17.058;2023-05-02T11:46:00;20.70;50.50
23271;DHT22;11804;51.118;17.058;2023-05-02T11:48:30;20.70;50.30
23271;DHT22;11804;51.118;17.058;2023-05-02T11:50:59;20.60;49.70
23271;DHT22;11804;51.118;17.058;2023-05-02T11:53:32;20.40;50.70
23271;DHT22;11804;51.118;17.058;2023-05-02T11:56:02;20.50;51.90
23271;DHT22;11804;51.118;17.058;2023-05-02T11:58:32;20.70;51.70
23271;DHT22;11804;51.118;17.058;2023-05-02T12:01:13;20.90;51.20
23271;DHT22;11804;51.118;17.058;2023-05-02T12:03:40;21.00;51.80
23271;DHT22;11804;51.118;17.058;2023-05-02T12:06:13;21.00;51.40
23271;DHT22;11804;51.118;17.058;2023-05-02T12:08:44;20.80;51.50
23271;DHT22;11804;51.118;17.058;2023-05-02T12:11:15;20.50;52.50
23271;DHT22;11804;51.118;17.058;2023-05-02T12:13:47;20.30;53.20
23271;DHT22;11804;51.118;17.058;2023-05-02T12:16:16;20.60;53.00
23271;DHT22;11804;51.118;17.058;2023-05-02T12:18:44;20.80;52.90
23271;DHT22;11804;51.118;17.058;2023-05-02T12:21:14;20.50;53.50
23271;DHT22;11804;51.118;17.058;2023-05-02T12:23:42;20.30;53.70
23271;DHT22;11804;51.118;17.058;2023-05-02T12:26:25;20.40;53.80
23271;DHT22;11804;51.118;17.058;2023-05-02T12:28:57;20.30;54.60
23271;DHT22;11804;51.118;17.058;2023-05-02T12:31:26;20.20;54.60
23271;DHT22;11804;51.118;17.058;2023-05-02T12:33:56;20.10;54.90
23271;DHT22;11804;51.118;17.058;2023-05-02T12:36:28;20.20;55.10
23271;DHT22;11804;51.118;17.058;2023-05-02T12:38:58;20.20;55.50
23271;DHT22;11804;51.118;17.058;2023-05-02T12:41:37;20.20;55.20
23271;DHT22;11804;51.118;17.058;2023-05-02T12:44:07;20.20;55.20
23271;DHT22;11804;51.118;17.058;2023-05-02T12:46:34;19.30;60.70
23271;DHT22;11804;51.118;17.058;2023-05-02T12:49:09;18.40;66.00
23271;DHT22;11804;51.118;17.058;2023-05-02T12:51:35;17.90;68.60
23271;DHT22;11804;51.118;17.058;2023-05-02T12:54:03;17.50;72.60
23271;DHT22;11804;51.118;17.058;2023-05-02T12:56:38;17.30;78.30
23271;DHT22;11804;51.118;17.058;2023-05-02T12:59:06;17.30;82.60
23271;DHT22;11804;51.118;17.058;2023-05-02T13:01:34;17.30;88.00
23271;DHT22;11804;51.118;17.058;2023-05-02T13:04:03;17.30;97.90
23271;DHT22;11804;51.118;17.058;2023-05-02T13:06:31;17.10;99.90
23271;DHT22;11804;51.118;17.058;2023-05-02T13:08:59;17.00;99.90
23271;DHT22;11804;51.118;17.058;2023-05-02T13:11:27;17.00;99.90
23271;DHT22;11804;51.118;17.058;2023-05-02T13:13:54;17.00;99.90
23271;DHT22;11804;51.118;17.058;2023-05-02T13:16:22;16.80;99.90
23271;DHT22;11804;51.118;17.058;2023-05-02T13:18:53;16.80;99.90
23271;DHT22;11804;51.118;17.058;2023-05-02T13:21:21;16.80;99.90
23271;DHT22;11804;51.118;17.058;2023-05-02T13:23:48;16.80;99.90
23271;DHT22;11804;51.118;17.058;2023-05-02T13:26:17;16.70;99.90
23271;DHT22;11804;51.118;17.058;2023-05-02T13:28:46;16.80;99.90
23271;DHT22;11804;51.118;17.058;2023-05-02T13:31:14;16.80;97.60
23271;DHT22;11804;51.118;17.058;2023-05-02T13:33:41;16.80;96.10
23271;DHT22;11804;51.118;17.058;2023-05-02T13:36:09;16.80;93.00
23271;DHT22;11804;51.118;17.058;2023-05-02T13:38:36;16.80;92.00
23271;DHT22;11804;51.118;17.058;2023-05-02T13:41:05;17.00;92.00
23271;DHT22;11804;51.118;17.058;2023-05-02T13:43:32;17.20;90.00
23271;DHT22;11804;51.118;17.058;2023-05-02T13:46:00;17.30;88.00
23271;DHT22;11804;51.118;17.058;2023-05-02T13:48:27;17.20;87.90
23271;DHT22;11804;51.118;17.058;2023-05-02T13:50:55;17.30;84.60
23271;DHT22;11804;51.118;17.058;2023-05-02T13:53:23;17.40;84.10
23271;DHT22;11804;51.118;17.058;2023-05-02T13:55:50;17.60;82.70
23271;DHT22;11804;51.118;17.058;2023-05-02T13:58:29;17.40;82.20
23271;DHT22;11804;51.118;17.058;2023-05-02T14:01:11;17.70;82.90
23271;DHT22;11804;51.118;17.058;2023-05-02T14:03:38;17.70;80.60
23271;DHT22;11804;51.118;17.058;2023-05-02T14:06:06;17.90;78.60
23271;DHT22;11804;51.118;17.058;2023-05-02T14:08:33;17.80;77.50
23271;DHT22;11804;51.118;17.058;2023-05-02T14:11:01;17.70;79.70
23271;DHT22;11804;51.118;17.058;2023-05-02T14:13:30;17.90;79.70
23271;DHT22;11804;51.118;17.058;2023-05-02T14:15:58;17.90;80.20
23271;DHT22;11804;51.118;17.058;2023-05-02T14:18:26;18.30;76.60
23271;DHT22;11804;51.118;17.058;2023-05-02T14:20:53;18.50;74.90
23271;DHT22;11804;51.118;17.058;2023-05-02T14:23:23;18.70;73.70
23271;DHT22;11804;51.118;17.058;2023-05-02T14:25:50;18.60;73.50
23271;DHT22;11804;51.118;17.058;2023-05-02T14:28:18;18.60;72.60
23271;DHT22;11804;51.118;17.058;2023-05-02T14:30:47;18.60;71.10
23271;DHT22;11804;51.118;17.058;2023-05-02T14:33:17;18.70;69.70
23271;DHT22;11804;51.118;17.058;2023-05-02T14:35:44;18.60;68.50
23271;DHT22;11804;51.118;17.058;2023-05-02T14:38:12;18.60;67.20
23271;DHT22;11804;51.118;17.058;2023-05-02T14:40:39;18.70;67.20
23271;DHT22;11804;51.118;17.058;2023-05-02T14:43:07;18.90;66.20
23271;DHT22;11804;51.118;17.058;2023-05-02T14:45:35;19.10;65.40
23271;DHT22;11804;51.118;17.058;2023-05-02T14:48:07;19.10;63.00
23271;DHT22;11804;51.118;17.058;2023-05-02T14:50:35;19.10;64.70
23271;DHT22;11804;51.118;17.058;2023-05-02T14:53:02;19.20;63.90
23271;DHT22;11804;51.118;17.058;2023-05-02T14:55:34;19.20;64.50
23271;DHT22;11804;51.118;17.058;2023-05-02T14:57:59;19.20;64.00
23271;DHT22;11804;51.118;17.058;2023-05-02T15:00:26;19.30;62.00
23271;DHT22;11804;51.118;17.058;2023-05-02T15:02:54;19.20;62.00
23271;DHT22;11804;51.118;17.058;2023-05-02T15:05:22;19.20;62.40
23271;DHT22;11804;51.118;17.058;2023-05-02T15:07:49;19.20;61.60
23271;DHT22;11804;51.118;17.058;2023-05-02T15:10:17;19.20;61.20
23271;DHT22;11804;51.118;17.058;2023-05-02T15:12:44;19.00;61.90
23271;DHT22;11804;51.118;17.058;2023-05-02T15:15:18;19.00;62.20
23271;DHT22;11804;51.118;17.058;2023-05-02T15:17:47;18.90;62.90
23271;DHT22;11804;51.118;17.058;2023-05-02T15:20:15;18.90;63.40
23271;DHT22;11804;51.118;17.058;2023-05-02T15:22:43;18.90;63.10
23271;DHT22;11804;51.118;17.058;2023-05-02T15:25:10;18.80;63.50
23271;DHT22;11804;51.118;17.058;2023-05-02T15:27:38;18.70;63.50
23271;DHT22;11804;51.118;17.058;2023-05-02T15:30:07;18.60;63.50
23271;DHT22;11804;51.118;17.058;2023-05-02T15:32:35;18.70;63.50
23271;DHT22;11804;51.118;17.058;2023-05-02T15:35:05;18.60;63.90
23271;DHT22;11804;51.118;17.058;2023-05-02T15:37:34;18.50;64.40
23271;DHT22;11804;51.118;17.058;2023-05-02T15:40:02;18.40;65.30
23271;DHT22;11804;51.118;17.058;2023-05-02T15:42:29;18.40;64.90
23271;DHT22;11804;51.118;17.058;2023-05-02T15:44:57;18.40;64.60
23271;DHT22;11804;51.118;17.058;2023-05-02T15:47:24;18.50;65.00
23271;DHT22;11804;51.118;17.058;2023-05-02T15:49:52;18.50;64.10
23271;DHT22;11804;51.118;17.058;2023-05-02T15:52:20;18.40;64.30
23271;DHT22;11804;51.118;17.058;2023-05-02T15:54:48;18.40;64.10
23271;DHT22;11804;51.118;17.058;2023-05-02T15:57:18;18.40;64.20
23271;DHT22;11804;51.118;17.058;2023-05-02T15:59:46;18.30;64.50
23271;DHT22;11804;51.118;17.058;2023-05-02T16:02:14;18.30;64.70
23271;DHT22;11804;51.118;17.058;2023-05-02T16:04:42;18.30;65.10